sensor_id;sensor_type;location;lat;lon;timestamp;P1;durP1;ratioP1;P2;durP2;ratioP2
72603;SDS011;60645;56.968;24.196;2023-04-22T00:02:22;9.03;;;3.33;;
72603;SDS011;60645;56.968;24.196;2023-04-22T00:04:49;6.97;;;3.13;;
72603;SDS011;60645;56.968;24.196;2023-04-22T00:07:17;6.30;;;2.90;;
72603;SDS011;60645;56.968;24.196;2023-04-22T00:09:43;5.63;;;2.90;;
72603;SDS011;60645;56.968;24.196;2023-04-22T00:12:11;6.60;;;2.75;;
72603;SDS011;60645;56.968;24.196;2023-04-22T00:14:38;6.57;;;2.85;;
72603;SDS011;60645;56.968;24.196;2023-04-22T00:17:05;7.95;;;3.53;;
72603;SDS011;60645;56.968;24.196;2023-04-22T00:19:32;8.27;;;3.83;;
72603;SDS011;60645;56.968;24.196;2023-04-22T00:22:00;12.40;;;5.97;;
72603;SDS011;60645;56.968;24.196;2023-04-22T00:24:27;18.17;;;9.65;;
72603;SDS011;60645;56.968;24.196;2023-04-22T00:26:54;25.25;;;13.02;;
72603;SDS011;60645;56.968;24.196;2023-04-22T00:29:21;24.20;;;13.68;;
72603;SDS011;60645;56.968;24.196;2023-04-22T00:31:48;28.98;;;16.40;;
72603;SDS011;60645;56.968;24.196;2023-04-22T00:34:15;29.85;;;17.83;;
72603;SDS011;60645;56.968;24.196;2023-04-22T00:36:45;29.57;;;17.80;;
72603;SDS011;60645;56.968;24.196;2023-04-22T00:39:12;32.13;;;18.50;;
72603;SDS011;60645;56.968;24.196;2023-04-22T00:41:40;28.45;;;16.10;;
72603;SDS011;60645;56.968;24.196;2023-04-22T00:44:10;26.00;;;14.90;;
72603;SDS011;60645;56.968;24.196;2023-04-22T00:46:38;27.40;;;14.85;;
72603;SDS011;60645;56.968;24.196;2023-04-22T00:49:05;23.07;;;13.27;;
72603;SDS011;60645;56.968;24.196;2023-04-22T00:51:33;19.08;;;10.93;;
72603;SDS011;60645;56.968;24.196;2023-04-22T00:54:00;16.92;;;9.48;;
72603;SDS011;60645;56.968;24.196;2023-04-22T00:56:29;16.15;;;9.82;;
72603;SDS011;60645;56.968;24.196;2023-04-22T00:58:59;16.90;;;9.38;;
72603;SDS011;60645;56.968;24.196;2023-04-22T01:01:26;17.40;;;8.73;;
72603;SDS011;60645;56.968;24.196;2023-04-22T01:03:53;15.03;;;7.80;;
72603;SDS011;60645;56.968;24.196;2023-04-22T01:06:21;14.30;;;8.65;;
72603;SDS011;60645;56.968;24.196;2023-04-22T01:08:49;15.27;;;8.20;;
72603;SDS011;60645;56.968;24.196;2023-04-22T01:11:16;14.20;;;7.65;;
72603;SDS011;60645;56.968;24.196;2023-04-22T01:13:43;13.45;;;7.60;;
72603;SDS011;60645;56.968;24.196;2023-04-22T01:16:11;15.48;;;8.05;;
72603;SDS011;60645;56.968;24.196;2023-04-22T01:18:38;13.48;;;7.45;;
72603;SDS011;60645;56.968;24.196;2023-04-22T01:21:05;11.00;;;7.53;;
72603;SDS011;60645;56.968;24.196;2023-04-22T01:23:32;12.05;;;7.10;;
72603;SDS011;60645;56.968;24.196;2023-04-22T01:25:59;12.02;;;7.68;;
72603;SDS011;60645;56.968;24.196;2023-04-22T01:28:27;10.85;;;7.20;;
72603;SDS011;60645;56.968;24.196;2023-04-22T01:30:54;8.13;;;5.50;;
72603;SDS011;60645;56.968;24.196;2023-04-22T01:33:21;7.05;;;4.90;;
72603;SDS011;60645;56.968;24.196;2023-04-22T01:35:48;7.78;;;3.95;;
72603;SDS011;60645;56.968;24.196;2023-04-22T01:38:15;6.18;;;3.85;;
72603;SDS011;60645;56.968;24.196;2023-04-22T01:40:42;5.95;;;3.40;;
72603;SDS011;60645;56.968;24.196;2023-04-22T01:43:09;7.50;;;3.00;;
72603;SDS011;60645;56.968;24.196;2023-04-22T01:45:36;5.35;;;3.58;;
72603;SDS011;60645;56.968;24.196;2023-04-22T01:48:03;5.47;;;3.17;;
72603;SDS011;60645;56.968;24.196;2023-04-22T01:50:32;5.00;;;2.88;;
72603;SDS011;60645;56.968;24.196;2023-04-22T01:52:59;4.80;;;2.60;;
72603;SDS011;60645;56.968;24.196;2023-04-22T01:55:26;6.07;;;3.10;;
72603;SDS011;60645;56.968;24.196;2023-04-22T01:57:53;6.13;;;2.90;;
72603;SDS011;60645;56.968;24.196;2023-04-22T02:00:20;7.25;;;4.30;;
72603;SDS011;60645;56.968;24.196;2023-04-22T02:02:47;8.97;;;5.13;;
72603;SDS011;60645;56.968;24.196;2023-04-22T02:05:14;11.45;;;5.53;;
72603;SDS011;60645;56.968;24.196;2023-04-22T02:07:41;11.73;;;6.32;;
72603;SDS011;60645;56.968;24.196;2023-04-22T02:10:08;13.43;;;6.47;;
72603;SDS011;60645;56.968;24.196;2023-04-22T02:12:36;11.30;;;5.22;;
72603;SDS011;60645;56.968;24.196;2023-04-22T02:15:04;7.80;;;4.50;;
72603;SDS011;60645;56.968;24.196;2023-04-22T02:17:31;7.07;;;4.00;;
72603;SDS011;60645;56.968;24.196;2023-04-22T02:19:59;9.05;;;5.03;;
72603;SDS011;60645;56.968;24.196;2023-04-22T02:22:26;9.60;;;4.50;;
72603;SDS011;60645;56.968;24.196;2023-04-22T02:24:54;7.15;;;3.42;;
72603;SDS011;60645;56.968;24.196;2023-04-22T02:27:21;6.87;;;3.30;;
72603;SDS011;60645;56.968;24.196;2023-04-22T02:29:48;7.68;;;2.90;;
72603;SDS011;60645;56.968;24.196;2023-04-22T02:32:16;5.30;;;3.05;;
72603;SDS011;60645;56.968;24.196;2023-04-22T02:34:43;7.25;;;2.70;;
72603;SDS011;60645;56.968;24.196;2023-04-22T02:37:10;6.50;;;2.85;;
72603;SDS011;60645;56.968;24.196;2023-04-22T02:39:37;4.65;;;2.95;;
72603;SDS011;60645;56.968;24.196;2023-04-22T02:42:04;5.05;;;2.75;;
72603;SDS011;60645;56.968;24.196;2023-04-22T02:44:31;7.15;;;3.00;;
72603;SDS011;60645;56.968;24.196;2023-04-22T02:46:58;8.27;;;2.88;;
72603;SDS011;60645;56.968;24.196;2023-04-22T02:49:25;12.00;;;4.38;;
72603;SDS011;60645;56.968;24.196;2023-04-22T02:51:52;9.95;;;3.78;;
72603;SDS011;60645;56.968;24.196;2023-04-22T02:54:19;10.00;;;3.17;;
72603;SDS011;60645;56.968;24.196;2023-04-22T02:56:46;9.75;;;3.70;;
72603;SDS011;60645;56.968;24.196;2023-04-22T02:59:13;12.17;;;4.23;;
72603;SDS011;60645;56.968;24.196;2023-04-22T03:01:40;10.80;;;3.05;;
72603;SDS011;60645;56.968;24.196;2023-04-22T03:04:07;9.35;;;3.42;;
72603;SDS011;60645;56.968;24.196;2023-04-22T03:06:34;10.60;;;3.13;;
72603;SDS011;60645;56.968;24.196;2023-04-22T03:09:01;10.02;;;3.10;;
72603;SDS011;60645;56.968;24.196;2023-04-22T03:11:28;12.50;;;2.95;;
72603;SDS011;60645;56.968;24.196;2023-04-22T03:13:55;8.48;;;2.80;;
72603;SDS011;60645;56.968;24.196;2023-04-22T03:16:22;5.32;;;2.30;;
72603;SDS011;60645;56.968;24.196;2023-04-22T03:18:49;6.72;;;3.00;;
72603;SDS011;60645;56.968;24.196;2023-04-22T03:21:16;7.07;;;3.25;;
72603;SDS011;60645;56.968;24.196;2023-04-22T03:23:43;7.60;;;2.88;;
72603;SDS011;60645;56.968;24.196;2023-04-22T03:26:10;8.32;;;4.00;;
72603;SDS011;60645;56.968;24.196;2023-04-22T03:28:38;7.47;;;3.30;;
72603;SDS011;60645;56.968;24.196;2023-04-22T03:31:05;6.63;;;3.53;;
72603;SDS011;60645;56.968;24.196;2023-04-22T03:33:32;5.60;;;3.17;;
72603;SDS011;60645;56.968;24.196;2023-04-22T03:35:59;5.35;;;3.03;;
72603;SDS011;60645;56.968;24.196;2023-04-22T03:38:26;5.93;;;2.80;;
72603;SDS011;60645;56.968;24.196;2023-04-22T03:40:53;11.35;;;3.35;;
72603;SDS011;60645;56.968;24.196;2023-04-22T03:43:20;5.53;;;2.90;;
72603;SDS011;60645;56.968;24.196;2023-04-22T03:45:47;5.40;;;2.40;;
72603;SDS011;60645;56.968;24.196;2023-04-22T03:48:14;8.90;;;2.90;;
72603;SDS011;60645;56.968;24.196;2023-04-22T03:50:40;7.38;;;2.80;;
72603;SDS011;60645;56.968;24.196;2023-04-22T03:53:07;8.10;;;2.47;;
72603;SDS011;60645;56.968;24.196;2023-04-22T03:55:34;5.75;;;2.53;;
72603;SDS011;60645;56.968;24.196;2023-04-22T03:58:01;9.00;;;3.03;;
72603;SDS011;60645;56.968;24.196;2023-04-22T04:00:28;6.88;;;2.92;;
72603;SDS011;60645;56.968;24.196;2023-04-22T04:02:55;6.85;;;2.88;;
72603;SDS011;60645;56.968;24.196;2023-04-22T04:05:22;6.70;;;3.00;;
72603;SDS011;60645;56.968;24.196;2023-04-22T04:07:49;7.10;;;3.03;;
72603;SDS011;60645;56.968;24.196;2023-04-22T04:10:16;6.13;;;2.60;;
72603;SDS011;60645;56.968;24.196;2023-04-22T04:12:43;4.85;;;2.90;;
72603;SDS011;60645;56.968;24.196;2023-04-22T04:15:10;6.47;;;1.80;;
72603;SDS011;60645;56.968;24.196;2023-04-22T04:17:37;4.18;;;2.40;;
72603;SDS011;60645;56.968;24.196;2023-04-22T04:20:04;4.35;;;2.22;;
72603;SDS011;60645;56.968;24.196;2023-04-22T04:22:32;4.33;;;2.03;;
72603;SDS011;60645;56.968;24.196;2023-04-22T04:25:00;3.40;;;1.92;;
72603;SDS011;60645;56.968;24.196;2023-04-22T04:27:27;3.88;;;1.80;;
72603;SDS011;60645;56.968;24.196;2023-04-22T04:29:54;4.30;;;2.30;;
72603;SDS011;60645;56.968;24.196;2023-04-22T04:32:21;4.90;;;2.20;;
72603;SDS011;60645;56.968;24.196;2023-04-22T04:34:49;4.95;;;2.60;;
72603;SDS011;60645;56.968;24.196;2023-04-22T04:37:17;3.30;;;2.70;;
72603;SDS011;60645;56.968;24.196;2023-04-22T04:39:44;4.30;;;3.90;;
72603;SDS011;60645;56.968;24.196;2023-04-22T04:42:11;6.22;;;4.00;;
72603;SDS011;60645;56.968;24.196;2023-04-22T04:44:39;6.90;;;4.57;;
72603;SDS011;60645;56.968;24.196;2023-04-22T04:47:06;4.55;;;4.03;;
72603;SDS011;60645;56.968;24.196;2023-04-22T04:49:33;5.13;;;4.47;;
72603;SDS011;60645;56.968;24.196;2023-04-22T04:52:06;4.88;;;4.38;;
72603;SDS011;60645;56.968;24.196;2023-04-22T04:54:35;5.65;;;3.40;;
72603;SDS011;60645;56.968;24.196;2023-04-22T04:57:02;3.88;;;3.58;;
72603;SDS011;60645;56.968;24.196;2023-04-22T04:59:30;6.53;;;4.30;;
72603;SDS011;60645;56.968;24.196;2023-04-22T05:01:57;5.72;;;4.45;;
72603;SDS011;60645;56.968;24.196;2023-04-22T05:04:24;6.15;;;3.70;;
72603;SDS011;60645;56.968;24.196;2023-04-22T05:06:51;5.22;;;4.00;;
72603;SDS011;60645;56.968;24.196;2023-04-22T05:09:18;7.95;;;3.90;;
72603;SDS011;60645;56.968;24.196;2023-04-22T05:11:45;5.20;;;4.07;;
72603;SDS011;60645;56.968;24.196;2023-04-22T05:14:12;6.33;;;3.60;;
72603;SDS011;60645;56.968;24.196;2023-04-22T05:16:39;4.40;;;3.00;;
72603;SDS011;60645;56.968;24.196;2023-04-22T05:19:06;4.75;;;4.00;;
72603;SDS011;60645;56.968;24.196;2023-04-22T05:21:33;5.15;;;3.38;;
72603;SDS011;60645;56.968;24.196;2023-04-22T05:24:00;5.55;;;3.45;;
72603;SDS011;60645;56.968;24.196;2023-04-22T05:26:27;4.45;;;3.00;;
72603;SDS011;60645;56.968;24.196;2023-04-22T05:28:54;6.28;;;3.22;;
72603;SDS011;60645;56.968;24.196;2023-04-22T05:31:21;5.00;;;3.53;;
72603;SDS011;60645;56.968;24.196;2023-04-22T05:33:48;5.03;;;3.53;;
72603;SDS011;60645;56.968;24.196;2023-04-22T05:36:15;5.15;;;4.03;;
72603;SDS011;60645;56.968;24.196;2023-04-22T05:38:42;4.65;;;3.42;;
72603;SDS011;60645;56.968;24.196;2023-04-22T05:41:08;6.80;;;3.80;;
72603;SDS011;60645;56.968;24.196;2023-04-22T05:43:35;8.07;;;3.92;;
72603;SDS011;60645;56.968;24.196;2023-04-22T05:46:02;5.13;;;4.07;;
72603;SDS011;60645;56.968;24.196;2023-04-22T05:48:29;6.63;;;4.95;;
72603;SDS011;60645;56.968;24.196;2023-04-22T05:50:56;8.20;;;5.10;;
72603;SDS011;60645;56.968;24.196;2023-04-22T05:53:23;7.28;;;5.80;;
72603;SDS011;60645;56.968;24.196;2023-04-22T05:55:50;6.25;;;5.43;;
72603;SDS011;60645;56.968;24.196;2023-04-22T05:58:17;9.68;;;6.63;;
72603;SDS011;60645;56.968;24.196;2023-04-22T06:00:44;9.02;;;7.80;;
72603;SDS011;60645;56.968;24.196;2023-04-22T06:03:11;9.25;;;7.78;;
72603;SDS011;60645;56.968;24.196;2023-04-22T06:05:39;14.48;;;12.98;;
72603;SDS011;60645;56.968;24.196;2023-04-22T06:08:06;13.43;;;11.85;;
72603;SDS011;60645;56.968;24.196;2023-04-22T06:10:33;14.27;;;12.68;;
72603;SDS011;60645;56.968;24.196;2023-04-22T06:13:00;12.50;;;11.10;;
72603;SDS011;60645;56.968;24.196;2023-04-22T06:15:27;14.20;;;9.45;;
72603;SDS011;60645;56.968;24.196;2023-04-22T06:17:54;11.82;;;8.55;;
72603;SDS011;60645;56.968;24.196;2023-04-22T06:20:21;10.13;;;7.38;;
72603;SDS011;60645;56.968;24.196;2023-04-22T06:22:48;9.05;;;5.60;;
72603;SDS011;60645;56.968;24.196;2023-04-22T06:25:15;7.75;;;4.80;;
72603;SDS011;60645;56.968;24.196;2023-04-22T06:27:42;7.43;;;4.87;;
72603;SDS011;60645;56.968;24.196;2023-04-22T06:30:09;9.93;;;5.63;;
72603;SDS011;60645;56.968;24.196;2023-04-22T06:32:37;8.85;;;5.88;;
72603;SDS011;60645;56.968;24.196;2023-04-22T06:35:04;6.97;;;4.95;;
72603;SDS011;60645;56.968;24.196;2023-04-22T06:37:31;5.57;;;4.03;;
72603;SDS011;60645;56.968;24.196;2023-04-22T06:39:58;5.45;;;4.95;;
72603;SDS011;60645;56.968;24.196;2023-04-22T06:42:25;8.35;;;5.90;;
72603;SDS011;60645;56.968;24.196;2023-04-22T06:44:52;8.77;;;5.30;;
72603;SDS011;60645;56.968;24.196;2023-04-22T06:47:19;5.68;;;3.30;;
72603;SDS011;60645;56.968;24.196;2023-04-22T06:49:46;4.40;;;2.50;;
72603;SDS011;60645;56.968;24.196;2023-04-22T06:52:13;4.63;;;2.53;;
72603;SDS011;60645;56.968;24.196;2023-04-22T06:54:40;4.47;;;2.00;;
72603;SDS011;60645;56.968;24.196;2023-04-22T06:57:07;3.90;;;2.13;;
72603;SDS011;60645;56.968;24.196;2023-04-22T06:59:34;7.05;;;2.85;;
72603;SDS011;60645;56.968;24.196;2023-04-22T07:02:01;5.68;;;2.40;;
72603;SDS011;60645;56.968;24.196;2023-04-22T07:04:28;3.72;;;2.33;;
72603;SDS011;60645;56.968;24.196;2023-04-22T07:06:56;4.75;;;3.15;;
72603;SDS011;60645;56.968;24.196;2023-04-22T07:09:23;2.55;;;2.20;;
72603;SDS011;60645;56.968;24.196;2023-04-22T07:11:50;2.70;;;1.70;;
72603;SDS011;60645;56.968;24.196;2023-04-22T07:14:17;4.20;;;1.30;;
72603;SDS011;60645;56.968;24.196;2023-04-22T07:16:45;3.83;;;1.97;;
72603;SDS011;60645;56.968;24.196;2023-04-22T07:19:12;2.67;;;1.50;;
72603;SDS011;60645;56.968;24.196;2023-04-22T07:21:39;2.55;;;1.50;;
72603;SDS011;60645;56.968;24.196;2023-04-22T07:24:05;2.90;;;1.60;;
72603;SDS011;60645;56.968;24.196;2023-04-22T07:26:38;2.35;;;1.25;;
72603;SDS011;60645;56.968;24.196;2023-04-22T07:29:05;5.70;;;1.90;;
72603;SDS011;60645;56.968;24.196;2023-04-22T07:31:34;2.10;;;1.20;;
72603;SDS011;60645;56.968;24.196;2023-04-22T07:34:01;2.85;;;1.17;;
72603;SDS011;60645;56.968;24.196;2023-04-22T07:36:28;4.20;;;1.85;;
72603;SDS011;60645;56.968;24.196;2023-04-22T07:38:58;3.63;;;1.48;;
72603;SDS011;60645;56.968;24.196;2023-04-22T07:41:25;4.10;;;1.55;;
72603;SDS011;60645;56.968;24.196;2023-04-22T07:43:52;1.83;;;0.85;;
72603;SDS011;60645;56.968;24.196;2023-04-22T07:46:19;3.53;;;1.15;;
72603;SDS011;60645;56.968;24.196;2023-04-22T07:48:46;3.03;;;1.17;;
72603;SDS011;60645;56.968;24.196;2023-04-22T07:51:13;1.90;;;1.05;;
72603;SDS011;60645;56.968;24.196;2023-04-22T07:53:40;2.00;;;1.25;;
72603;SDS011;60645;56.968;24.196;2023-04-22T07:56:07;1.90;;;0.70;;
72603;SDS011;60645;56.968;24.196;2023-04-22T07:58:34;2.88;;;1.85;;
72603;SDS011;60645;56.968;24.196;2023-04-22T08:01:01;4.03;;;2.20;;
72603;SDS011;60645;56.968;24.196;2023-04-22T08:03:28;4.15;;;2.53;;
72603;SDS011;60645;56.968;24.196;2023-04-22T08:05:55;6.43;;;4.13;;
72603;SDS011;60645;56.968;24.196;2023-04-22T08:08:23;3.10;;;2.23;;
72603;SDS011;60645;56.968;24.196;2023-04-22T08:10:50;5.82;;;4.18;;
72603;SDS011;60645;56.968;24.196;2023-04-22T08:13:17;8.52;;;5.32;;
72603;SDS011;60645;56.968;24.196;2023-04-22T08:15:44;13.80;;;10.32;;
72603;SDS011;60645;56.968;24.196;2023-04-22T08:18:11;12.85;;;11.18;;
72603;SDS011;60645;56.968;24.196;2023-04-22T08:20:38;12.82;;;11.48;;
72603;SDS011;60645;56.968;24.196;2023-04-22T08:23:05;14.02;;;12.23;;
72603;SDS011;60645;56.968;24.196;2023-04-22T08:25:33;13.10;;;11.32;;
72603;SDS011;60645;56.968;24.196;2023-04-22T08:28:00;14.45;;;13.10;;
72603;SDS011;60645;56.968;24.196;2023-04-22T08:30:27;16.77;;;15.07;;
72603;SDS011;60645;56.968;24.196;2023-04-22T08:32:55;15.65;;;14.05;;
72603;SDS011;60645;56.968;24.196;2023-04-22T08:35:22;12.88;;;11.57;;
72603;SDS011;60645;56.968;24.196;2023-04-22T08:37:49;13.57;;;10.43;;
72603;SDS011;60645;56.968;24.196;2023-04-22T08:40:16;13.60;;;9.10;;
72603;SDS011;60645;56.968;24.196;2023-04-22T08:42:43;11.40;;;8.93;;
72603;SDS011;60645;56.968;24.196;2023-04-22T08:45:10;10.90;;;9.77;;
72603;SDS011;60645;56.968;24.196;2023-04-22T08:47:38;10.40;;;8.83;;
72603;SDS011;60645;56.968;24.196;2023-04-22T08:50:06;12.10;;;10.85;;
72603;SDS011;60645;56.968;24.196;2023-04-22T08:52:35;13.68;;;10.45;;
72603;SDS011;60645;56.968;24.196;2023-04-22T08:55:03;13.30;;;11.87;;
72603;SDS011;60645;56.968;24.196;2023-04-22T08:57:31;13.23;;;11.50;;
72603;SDS011;60645;56.968;24.196;2023-04-22T08:59:59;12.65;;;11.30;;
72603;SDS011;60645;56.968;24.196;2023-04-22T09:02:28;12.82;;;11.52;;
72603;SDS011;60645;56.968;24.196;2023-04-22T09:04:59;12.70;;;11.20;;
72603;SDS011;60645;56.968;24.196;2023-04-22T09:07:29;15.95;;;14.23;;
72603;SDS011;60645;56.968;24.196;2023-04-22T09:09:56;17.73;;;15.90;;
72603;SDS011;60645;56.968;24.196;2023-04-22T09:12:24;19.63;;;16.75;;
72603;SDS011;60645;56.968;24.196;2023-04-22T09:14:51;17.90;;;14.07;;
72603;SDS011;60645;56.968;24.196;2023-04-22T09:17:29;15.02;;;12.27;;
72603;SDS011;60645;56.968;24.196;2023-04-22T09:20:04;11.02;;;9.55;;
72603;SDS011;60645;56.968;24.196;2023-04-22T09:22:37;10.95;;;9.85;;
72603;SDS011;60645;56.968;24.196;2023-04-22T09:25:13;11.57;;;9.63;;
72603;SDS011;60645;56.968;24.196;2023-04-22T09:27:42;11.45;;;9.60;;
72603;SDS011;60645;56.968;24.196;2023-04-22T09:30:15;12.63;;;9.95;;
72603;SDS011;60645;56.968;24.196;2023-04-22T09:32:50;9.52;;;8.52;;
72603;SDS011;60645;56.968;24.196;2023-04-22T09:35:22;8.90;;;7.20;;
72603;SDS011;60645;56.968;24.196;2023-04-22T09:37:57;7.67;;;6.87;;
72603;SDS011;60645;56.968;24.196;2023-04-22T09:40:26;7.40;;;6.28;;
72603;SDS011;60645;56.968;24.196;2023-04-22T09:42:54;5.22;;;3.20;;
72603;SDS011;60645;56.968;24.196;2023-04-22T09:45:30;3.97;;;2.78;;
72603;SDS011;60645;56.968;24.196;2023-04-22T09:48:00;5.07;;;2.30;;
72603;SDS011;60645;56.968;24.196;2023-04-22T09:50:35;3.40;;;1.48;;
72603;SDS011;60645;56.968;24.196;2023-04-22T09:53:06;4.80;;;1.63;;
72603;SDS011;60645;56.968;24.196;2023-04-22T09:55:36;2.90;;;1.30;;
72603;SDS011;60645;56.968;24.196;2023-04-22T09:58:06;3.78;;;1.30;;
72603;SDS011;60645;56.968;24.196;2023-04-22T10:00:47;3.70;;;1.30;;
72603;SDS011;60645;56.968;24.196;2023-04-22T10:03:17;3.55;;;1.38;;
72603;SDS011;60645;56.968;24.196;2023-04-22T10:05:44;5.05;;;1.77;;
72603;SDS011;60645;56.968;24.196;2023-04-22T10:08:12;3.67;;;1.58;;
72603;SDS011;60645;56.968;24.196;2023-04-22T10:10:40;3.38;;;1.88;;
72603;SDS011;60645;56.968;24.196;2023-04-22T10:13:09;4.18;;;1.73;;
72603;SDS011;60645;56.968;24.196;2023-04-22T10:18:15;2.78;;;1.58;;
72603;SDS011;60645;56.968;24.196;2023-04-22T10:20:46;2.75;;;1.65;;
72603;SDS011;60645;56.968;24.196;2023-04-22T10:23:18;2.90;;;1.95;;
72603;SDS011;60645;56.968;24.196;2023-04-22T10:25:48;4.28;;;2.20;;
72603;SDS011;60645;56.968;24.196;2023-04-22T10:28:20;4.53;;;2.70;;
72603;SDS011;60645;56.968;24.196;2023-04-22T10:30:47;5.75;;;2.53;;
72603;SDS011;60645;56.968;24.196;2023-04-22T10:36:09;3.33;;;1.90;;
72603;SDS011;60645;56.968;24.196;2023-04-22T10:41:21;3.60;;;3.10;;
72603;SDS011;60645;56.968;24.196;2023-04-22T10:43:59;5.13;;;2.50;;
72603;SDS011;60645;56.968;24.196;2023-04-22T10:49:07;3.58;;;2.80;;
72603;SDS011;60645;56.968;24.196;2023-04-22T10:54:54;3.10;;;1.47;;
72603;SDS011;60645;56.968;24.196;2023-04-22T10:57:05;5.28;;;2.80;;
72603;SDS011;60645;56.968;24.196;2023-04-22T11:02:16;7.60;;;5.97;;
72603;SDS011;60645;56.968;24.196;2023-04-22T11:04:43;9.98;;;6.32;;
72603;SDS011;60645;56.968;24.196;2023-04-22T11:37:23;10.97;;;8.13;;
72603;SDS011;60645;56.968;24.196;2023-04-22T11:39:50;9.20;;;7.70;;
72603;SDS011;60645;56.968;24.196;2023-04-22T11:42:37;9.57;;;6.72;;
72603;SDS011;60645;56.968;24.196;2023-04-22T11:45:05;7.68;;;5.30;;
72603;SDS011;60645;56.968;24.196;2023-04-22T11:47:33;6.60;;;5.00;;
72603;SDS011;60645;56.968;24.196;2023-04-22T11:50:02;4.53;;;3.90;;
72603;SDS011;60645;56.968;24.196;2023-04-22T11:55:29;6.82;;;3.67;;
72603;SDS011;60645;56.968;24.196;2023-04-22T12:00:44;5.80;;;4.55;;
72603;SDS011;60645;56.968;24.196;2023-04-22T12:03:16;8.03;;;3.67;;
72603;SDS011;60645;56.968;24.196;2023-04-22T12:16:00;4.70;;;2.45;;
72603;SDS011;60645;56.968;24.196;2023-04-22T12:18:52;4.05;;;3.58;;
72603;SDS011;60645;56.968;24.196;2023-04-22T12:21:21;6.57;;;4.45;;
72603;SDS011;60645;56.968;24.196;2023-04-22T12:23:54;6.40;;;3.38;;
72603;SDS011;60645;56.968;24.196;2023-04-22T12:26:24;6.43;;;4.20;;
72603;SDS011;60645;56.968;24.196;2023-04-22T12:28:53;6.30;;;5.22;;
72603;SDS011;60645;56.968;24.196;2023-04-22T12:33:49;8.40;;;4.00;;
72603;SDS011;60645;56.968;24.196;2023-04-22T12:36:17;5.40;;;2.38;;
72603;SDS011;60645;56.968;24.196;2023-04-22T12:38:46;4.32;;;2.90;;
72603;SDS011;60645;56.968;24.196;2023-04-22T12:41:13;5.95;;;3.33;;
72603;SDS011;60645;56.968;24.196;2023-04-22T12:43:41;4.13;;;3.23;;
72603;SDS011;60645;56.968;24.196;2023-04-22T12:46:08;4.47;;;3.40;;
72603;SDS011;60645;56.968;24.196;2023-04-22T12:48:36;5.25;;;2.83;;
72603;SDS011;60645;56.968;24.196;2023-04-22T12:51:03;6.45;;;4.35;;
72603;SDS011;60645;56.968;24.196;2023-04-22T12:53:32;6.35;;;4.30;;
72603;SDS011;60645;56.968;24.196;2023-04-22T12:55:59;6.07;;;3.75;;
72603;SDS011;60645;56.968;24.196;2023-04-22T12:58:26;5.13;;;3.08;;
72603;SDS011;60645;56.968;24.196;2023-04-22T13:00:52;5.35;;;3.08;;
72603;SDS011;60645;56.968;24.196;2023-04-22T13:03:19;5.28;;;2.30;;
72603;SDS011;60645;56.968;24.196;2023-04-22T13:05:47;5.57;;;2.05;;
72603;SDS011;60645;56.968;24.196;2023-04-22T13:08:14;4.10;;;2.03;;
72603;SDS011;60645;56.968;24.196;2023-04-22T13:10:41;4.68;;;2.20;;
72603;SDS011;60645;56.968;24.196;2023-04-22T13:13:08;4.35;;;2.45;;
72603;SDS011;60645;56.968;24.196;2023-04-22T13:15:45;5.25;;;2.25;;
72603;SDS011;60645;56.968;24.196;2023-04-22T13:18:13;6.07;;;2.78;;
72603;SDS011;60645;56.968;24.196;2023-04-22T13:20:42;4.43;;;2.55;;
72603;SDS011;60645;56.968;24.196;2023-04-22T13:23:09;3.90;;;2.17;;
72603;SDS011;60645;56.968;24.196;2023-04-22T13:25:36;3.30;;;2.10;;
72603;SDS011;60645;56.968;24.196;2023-04-22T13:28:03;5.25;;;2.33;;
72603;SDS011;60645;56.968;24.196;2023-04-22T13:30:31;4.83;;;2.20;;
72603;SDS011;60645;56.968;24.196;2023-04-22T13:32:58;3.50;;;1.92;;
72603;SDS011;60645;56.968;24.196;2023-04-22T13:35:25;3.78;;;1.83;;
72603;SDS011;60645;56.968;24.196;2023-04-22T13:37:52;3.40;;;1.67;;
72603;SDS011;60645;56.968;24.196;2023-04-22T13:40:19;3.17;;;1.60;;
72603;SDS011;60645;56.968;24.196;2023-04-22T13:42:46;2.85;;;1.45;;
72603;SDS011;60645;56.968;24.196;2023-04-22T13:45:13;1.75;;;1.25;;
72603;SDS011;60645;56.968;24.196;2023-04-22T13:47:40;2.47;;;1.33;;
72603;SDS011;60645;56.968;24.196;2023-04-22T13:50:07;2.55;;;1.00;;
72603;SDS011;60645;56.968;24.196;2023-04-22T13:52:35;2.78;;;1.25;;
72603;SDS011;60645;56.968;24.196;2023-04-22T13:55:02;2.73;;;1.13;;
72603;SDS011;60645;56.968;24.196;2023-04-22T13:57:29;3.70;;;1.40;;
72603;SDS011;60645;56.968;24.196;2023-04-22T13:59:57;2.72;;;0.93;;
72603;SDS011;60645;56.968;24.196;2023-04-22T14:02:24;2.83;;;1.08;;
72603;SDS011;60645;56.968;24.196;2023-04-22T14:04:51;2.30;;;0.70;;
72603;SDS011;60645;56.968;24.196;2023-04-22T14:07:18;1.52;;;0.50;;
72603;SDS011;60645;56.968;24.196;2023-04-22T14:09:45;1.67;;;0.70;;
72603;SDS011;60645;56.968;24.196;2023-04-22T14:12:12;3.50;;;0.43;;
72603;SDS011;60645;56.968;24.196;2023-04-22T14:14:39;1.52;;;0.60;;
72603;SDS011;60645;56.968;24.196;2023-04-22T14:17:06;2.27;;;0.57;;
72603;SDS011;60645;56.968;24.196;2023-04-22T14:19:33;1.70;;;0.60;;
72603;SDS011;60645;56.968;24.196;2023-04-22T14:22:02;2.75;;;0.80;;
72603;SDS011;60645;56.968;24.196;2023-04-22T14:24:29;2.85;;;0.60;;
72603;SDS011;60645;56.968;24.196;2023-04-22T14:26:59;3.05;;;0.63;;
72603;SDS011;60645;56.968;24.196;2023-04-22T14:29:29;3.55;;;0.80;;
72603;SDS011;60645;56.968;24.196;2023-04-22T14:31:57;2.55;;;0.80;;
72603;SDS011;60645;56.968;24.196;2023-04-22T14:34:24;2.50;;;1.05;;
72603;SDS011;60645;56.968;24.196;2023-04-22T14:36:52;3.97;;;0.60;;
72603;SDS011;60645;56.968;24.196;2023-04-22T14:39:20;2.65;;;0.93;;
72603;SDS011;60645;56.968;24.196;2023-04-22T14:41:47;3.05;;;0.60;;
72603;SDS011;60645;56.968;24.196;2023-04-22T14:44:14;4.32;;;0.93;;
72603;SDS011;60645;56.968;24.196;2023-04-22T14:46:41;3.15;;;0.80;;
72603;SDS011;60645;56.968;24.196;2023-04-22T14:49:08;1.98;;;0.60;;
72603;SDS011;60645;56.968;24.196;2023-04-22T14:51:35;3.97;;;0.95;;
72603;SDS011;60645;56.968;24.196;2023-04-22T14:54:02;2.30;;;0.45;;
72603;SDS011;60645;56.968;24.196;2023-04-22T14:56:30;1.63;;;0.60;;
72603;SDS011;60645;56.968;24.196;2023-04-22T14:58:57;3.85;;;0.70;;
72603;SDS011;60645;56.968;24.196;2023-04-22T15:01:24;3.28;;;0.75;;
72603;SDS011;60645;56.968;24.196;2023-04-22T15:03:51;2.10;;;0.70;;
72603;SDS011;60645;56.968;24.196;2023-04-22T15:06:19;2.65;;;0.70;;
72603;SDS011;60645;56.968;24.196;2023-04-22T15:08:46;2.55;;;0.77;;
72603;SDS011;60645;56.968;24.196;2023-04-22T15:11:13;3.23;;;1.00;;
72603;SDS011;60645;56.968;24.196;2023-04-22T15:13:39;2.65;;;0.70;;
72603;SDS011;60645;56.968;24.196;2023-04-22T15:16:06;3.13;;;0.80;;
72603;SDS011;60645;56.968;24.196;2023-04-22T15:18:34;4.65;;;0.95;;
72603;SDS011;60645;56.968;24.196;2023-04-22T15:21:01;2.67;;;0.68;;
72603;SDS011;60645;56.968;24.196;2023-04-22T15:23:28;2.20;;;0.77;;
72603;SDS011;60645;56.968;24.196;2023-04-22T15:25:55;3.90;;;0.98;;
72603;SDS011;60645;56.968;24.196;2023-04-22T15:28:22;4.15;;;0.70;;
72603;SDS011;60645;56.968;24.196;2023-04-22T15:30:49;2.78;;;0.60;;
72603;SDS011;60645;56.968;24.196;2023-04-22T15:33:16;2.78;;;0.85;;
72603;SDS011;60645;56.968;24.196;2023-04-22T15:35:43;3.43;;;0.87;;
72603;SDS011;60645;56.968;24.196;2023-04-22T15:38:10;3.55;;;0.90;;
72603;SDS011;60645;56.968;24.196;2023-04-22T15:40:37;2.03;;;0.88;;